createdAt,value
2019-01-25T00:02:02.931Z,89.86
2019-01-25T00:05:26.939Z,89.52
2019-01-25T00:08:50.910Z,89.44
2019-01-25T00:12:14.878Z,89.19
2019-01-25T00:15:39.203Z,89.07
2019-01-25T00:19:03.176Z,89.04
2019-01-25T00:22:27.140Z,89.39
2019-01-25T00:25:51.449Z,89.66
2019-01-25T00:29:15.425Z,89.58
2019-01-25T00:32:39.392Z,88.86
2019-01-25T00:36:03.370Z,88.69
2019-01-25T00:39:27.356Z,88.92
2019-01-25T00:46:34.595Z,88.50
2019-01-25T00:49:49.619Z,88.52
2019-01-25T00:53:13.588Z,88.28
2019-01-25T00:56:37.566Z,88.24
2019-01-25T01:03:31.105Z,88.59
2019-01-25T01:06:55.086Z,88.14
2019-01-25T01:10:19.057Z,88.40
2019-01-25T01:13:43.031Z,89.18
2019-01-25T01:17:26.274Z,89.86
2019-01-25T01:20:50.282Z,88.43
2019-01-25T01:24:14.517Z,88.45
2019-01-25T01:27:38.488Z,88.62
2019-01-25T01:34:32.388Z,89.26
2019-01-25T01:37:56.423Z,89.08
2019-01-25T01:41:20.749Z,89.85
2019-01-25T01:44:45.036Z,89.58
2019-01-25T01:48:01.511Z,89.78
2019-01-25T01:51:25.481Z,90.46
2019-01-25T01:54:49.813Z,89.72
2019-01-25T01:58:13.780Z,89.46
2019-01-25T02:01:38.085Z,88.76
2019-01-25T02:08:31.494Z,89.44
2019-01-25T02:12:14.614Z,89.61
2019-01-25T02:15:21.674Z,89.76
2019-01-25T02:18:26.303Z,89.35
2019-01-25T02:21:31.173Z,89.96
2019-01-25T02:24:35.809Z,90.27
2019-01-25T02:27:59.790Z,90.53
2019-01-25T02:35:12.632Z,91.49
2019-01-25T02:38:36.909Z,92.69
2019-01-25T02:42:00.891Z,92.82
2019-01-25T02:45:25.286Z,92.96
2019-01-25T02:48:42.450Z,91.91
2019-01-25T02:52:06.694Z,92.12
2019-01-25T02:55:13.279Z,92.85
2019-01-25T02:58:56.549Z,92.47
2019-01-25T03:02:20.526Z,92.52
2019-01-25T03:05:44.875Z,92.22
2019-01-25T03:09:29.962Z,92.18
2019-01-25T03:12:53.944Z,91.88
2019-01-25T03:16:17.922Z,91.52
2019-01-25T03:19:41.900Z,91.89
2019-01-25T03:23:05.876Z,92.98
2019-01-25T03:26:29.867Z,92.49
2019-01-25T03:29:53.826Z,92.66
2019-01-25T03:33:18.136Z,93.02
2019-01-25T03:36:42.109Z,93.00
2019-01-25T03:40:26.865Z,92.74
2019-01-25T03:43:50.834Z,93.40
2019-01-25T03:47:07.697Z,92.95
2019-01-25T03:50:20.086Z,92.68
2019-01-25T03:53:24.719Z,92.43
2019-01-25T03:56:48.730Z,92.06
2019-01-25T04:00:33.485Z,91.12
2019-01-25T04:03:57.459Z,90.01
2019-01-25T04:07:21.429Z,90.05
2019-01-25T04:10:45.391Z,89.60
2019-01-25T04:14:09.379Z,89.66
2019-01-25T04:17:33.357Z,90.36
2019-01-25T04:20:57.390Z,90.48
2019-01-25T04:24:02.033Z,89.43
2019-01-25T04:27:26.291Z,89.57
2019-01-25T04:30:50.303Z,89.26
2019-01-25T04:34:15.283Z,89.25
2019-01-25T04:37:39.262Z,89.68
2019-01-25T04:44:46.163Z,89.60
2019-01-25T04:48:03.522Z,89.80
2019-01-25T04:55:31.216Z,89.86
2019-01-25T04:58:55.189Z,90.06
2019-01-25T05:02:19.156Z,88.87
2019-01-25T05:09:54.043Z,87.20
2019-01-25T05:17:08.568Z,87.19
2019-01-25T05:20:32.553Z,86.83
2019-01-25T05:23:56.536Z,87.17
2019-01-25T05:27:20.508Z,87.82
2019-01-25T05:31:04.092Z,87.18
2019-01-25T05:34:28.178Z,86.79
2019-01-25T05:37:52.474Z,87.52
2019-01-25T05:41:16.450Z,87.78
2019-01-25T05:44:40.433Z,86.75
2019-01-25T05:47:57.366Z,86.94
2019-01-25T05:51:21.342Z,85.80
2019-01-25T05:54:45.311Z,86.62
2019-01-25T05:58:30.065Z,85.96
2019-01-25T06:01:54.077Z,85.56
2019-01-25T06:05:18.162Z,86.12
2019-01-25T06:12:44.100Z,85.41
2019-01-25T06:16:08.415Z,84.97
2019-01-25T06:19:53.195Z,85.85
2019-01-25T06:23:17.470Z,85.96
2019-01-25T06:27:02.236Z,85.59
2019-01-25T06:30:26.250Z,85.94
2019-01-25T06:33:50.515Z,85.64
2019-01-25T06:37:14.807Z,85.21
2019-01-25T06:40:38.797Z,86.15
2019-01-25T06:44:21.865Z,85.59
2019-01-25T06:47:38.711Z,85.82
2019-01-25T06:54:34.880Z,85.39
2019-01-25T07:01:48.985Z,85.77
2019-01-25T07:05:32.086Z,85.62
2019-01-25T07:09:15.111Z,87.00
2019-01-25T07:12:39.073Z,86.98
2019-01-25T07:16:03.043Z,86.87
2019-01-25T07:23:10.062Z,85.63
2019-01-25T07:26:34.120Z,85.38
2019-01-25T07:29:51.348Z,84.28
2019-01-25T07:33:15.326Z,85.80
2019-01-25T07:36:39.580Z,85.88
2019-01-25T07:43:53.857Z,85.80
2019-01-25T07:47:10.997Z,85.15
2019-01-25T07:50:35.409Z,85.66
2019-01-25T07:53:59.672Z,86.35
2019-01-25T08:07:54.272Z,87.24
2019-01-25T08:15:01.461Z,87.57
2019-01-25T08:21:56.189Z,87.90
2019-01-25T08:25:20.622Z,88.62
2019-01-25T08:28:44.637Z,87.68
2019-01-25T08:36:31.299Z,87.58
2019-01-25T08:39:55.580Z,86.83
2019-01-25T08:43:19.555Z,86.04
2019-01-25T08:46:43.830Z,86.24
2019-01-25T08:50:28.941Z,86.57
2019-01-25T08:57:22.754Z,86.50
2019-01-25T09:00:46.799Z,87.33
2019-01-25T09:04:30.067Z,86.95
2019-01-25T09:07:54.166Z,86.62
2019-01-25T09:11:18.157Z,86.13
2019-01-25T09:14:42.140Z,85.75
2019-01-25T09:18:06.400Z,85.43
2019-01-25T09:21:11.334Z,84.62
2019-01-25T09:24:16.214Z,84.88
2019-01-25T09:27:20.844Z,85.66
2019-01-25T09:30:28.188Z,85.60
2019-01-25T09:33:32.822Z,83.04
2019-01-25T09:36:37.493Z,83.27
2019-01-25T09:40:01.733Z,82.08
2019-01-25T09:43:25.709Z,81.00
2019-01-25T09:47:08.961Z,79.77
2019-01-25T09:50:20.046Z,79.14
2019-01-25T09:53:24.932Z,78.51
2019-01-25T09:56:29.607Z,78.43
2019-01-25T09:59:34.239Z,78.16
2019-01-25T10:02:58.217Z,78.56
2019-01-25T10:06:22.199Z,77.55
2019-01-25T10:09:46.477Z,79.55
2019-01-25T10:13:10.461Z,80.72
2019-01-25T10:16:34.759Z,80.66
2019-01-25T10:20:17.775Z,78.31
2019-01-25T10:23:41.756Z,77.71
2019-01-25T10:27:06.154Z,79.55
2019-01-25T10:30:21.262Z,81.19
2019-01-25T10:33:26.208Z,81.92
2019-01-25T10:36:30.846Z,83.42
2019-01-25T10:39:35.756Z,83.70
2019-01-25T10:42:45.602Z,83.65
2019-01-25T10:45:46.812Z,83.39
2019-01-25T10:48:51.450Z,82.78
2019-01-25T10:51:56.087Z,83.51
2019-01-25T10:55:01.015Z,83.25
2019-01-25T10:58:24.992Z,83.43
2019-01-25T11:01:49.013Z,82.93
2019-01-25T11:05:33.796Z,83.04
2019-01-25T11:08:58.028Z,85.61
2019-01-25T11:12:22.074Z,86.47
2019-01-25T11:15:46.022Z,87.33
2019-01-25T11:19:10.000Z,88.19
2019-01-25T11:22:53.241Z,87.75
2019-01-25T11:26:17.520Z,88.32
2019-01-25T11:29:22.147Z,85.95
2019-01-25T11:32:26.787Z,81.48
2019-01-25T11:35:31.730Z,78.28
2019-01-25T11:38:36.372Z,75.67
2019-01-25T11:41:41.001Z,75.33
2019-01-25T11:44:45.647Z,73.96
2019-01-25T11:47:50.645Z,74.22
2019-01-25T11:50:55.291Z,75.99
2019-01-25T11:53:59.935Z,75.66
2019-01-25T11:57:23.907Z,76.80
2019-01-25T12:00:48.168Z,75.10
2019-01-25T12:11:32.571Z,73.43
2019-01-25T12:18:26.046Z,73.23
2019-01-25T12:22:09.036Z,72.13
2019-01-25T12:29:02.106Z,68.86
2019-01-25T12:32:26.119Z,70.43
2019-01-25T12:35:37.830Z,70.06
2019-01-25T12:38:42.732Z,70.36
2019-01-25T12:42:26.132Z,73.08
2019-01-25T12:45:50.401Z,74.41
2019-01-25T12:49:09.937Z,76.00
2019-01-25T12:52:34.198Z,76.04
2019-01-25T12:55:58.535Z,75.83
2019-01-25T12:59:22.880Z,75.58
2019-01-25T13:02:47.241Z,75.99
2019-01-25T13:05:52.375Z,75.42
2019-01-25T13:08:57.517Z,73.77
2019-01-25T13:12:25.236Z,76.43
2019-01-25T13:19:30.162Z,75.61
2019-01-25T13:23:13.323Z,76.41
2019-01-25T13:26:37.368Z,76.32
2019-01-25T13:30:20.369Z,75.55
2019-01-25T13:37:14.024Z,75.90
2019-01-25T13:44:22.717Z,76.57
2019-01-25T13:47:39.834Z,78.72
2019-01-25T13:51:03.888Z,78.36
2019-01-25T13:54:28.951Z,78.11
2019-01-25T14:01:43.996Z,77.15
2019-01-25T14:05:28.769Z,77.28
2019-01-25T14:12:21.952Z,79.14
2019-01-25T14:22:58.202Z,77.62
2019-01-25T14:26:22.433Z,75.59
2019-01-25T14:30:05.697Z,74.72
2019-01-25T14:33:29.670Z,72.77
2019-01-25T14:36:53.957Z,70.86
2019-01-25T14:40:18.017Z,69.44
2019-01-25T14:43:41.990Z,70.27
2019-01-25T14:46:56.951Z,70.80
2019-01-25T14:50:41.741Z,70.00
2019-01-25T14:57:56.049Z,69.25
2019-01-25T15:01:39.062Z,68.70
2019-01-25T15:08:53.626Z,68.84
2019-01-25T15:12:17.611Z,68.77
2019-01-25T15:19:31.524Z,69.75
2019-01-25T15:26:59.521Z,73.51
2019-01-25T15:30:42.819Z,74.35
2019-01-25T15:37:50.079Z,75.37
2019-01-25T15:41:14.356Z,76.58
2019-01-25T15:44:38.610Z,75.20
2019-01-25T15:47:56.215Z,75.82
2019-01-25T15:51:20.191Z,75.10
2019-01-25T15:54:25.115Z,75.83
2019-01-25T15:57:49.512Z,74.52
2019-01-25T16:01:32.621Z,75.70
2019-01-25T16:04:56.670Z,75.25
2019-01-25T16:08:20.630Z,75.26
2019-01-25T16:11:44.762Z,75.77
2019-01-25T16:15:29.839Z,74.70
2019-01-25T16:18:54.081Z,75.09
2019-01-25T16:22:18.404Z,76.84
2019-01-25T16:25:42.458Z,75.25
2019-01-25T16:29:07.194Z,76.16
2019-01-25T16:32:31.237Z,76.60
2019-01-25T16:35:55.328Z,75.94
2019-01-25T16:43:02.515Z,76.25
2019-01-25T16:46:45.786Z,76.74
2019-01-25T16:50:02.733Z,77.91
2019-01-25T16:53:26.771Z,79.09
2019-01-25T17:00:40.610Z,80.86
2019-01-25T17:11:44.852Z,81.81
2019-01-25T17:19:12.592Z,83.53
2019-01-25T17:22:36.650Z,84.11
2019-01-25T17:26:00.645Z,83.95
2019-01-25T17:29:24.962Z,84.67
2019-01-25T17:32:49.018Z,85.37
2019-01-25T17:36:13.230Z,85.22
2019-01-25T17:39:37.221Z,85.32
2019-01-25T17:43:01.259Z,85.39
2019-01-25T17:46:25.637Z,85.52
2019-01-25T17:49:42.388Z,84.99
2019-01-25T17:53:06.384Z,85.62
2019-01-25T17:56:49.465Z,85.98
2019-01-25T18:00:53.313Z,86.58
2019-01-25T18:04:17.390Z,84.76
2019-01-25T18:07:41.735Z,84.13
2019-01-25T18:11:24.943Z,84.39
2019-01-25T18:14:49.538Z,83.91
2019-01-25T18:18:14.977Z,84.41
2019-01-25T18:21:39.023Z,84.45
2019-01-25T18:25:03.005Z,84.03
2019-01-25T18:28:48.042Z,84.24
2019-01-25T18:32:12.136Z,84.45
2019-01-25T18:35:36.624Z,84.34
2019-01-25T18:46:18.815Z,83.89
2019-01-25T18:49:35.999Z,83.83
2019-01-25T18:52:59.998Z,83.09
2019-01-25T19:00:46.615Z,83.19
2019-01-25T19:04:10.858Z,83.72
2019-01-25T19:11:17.833Z,84.37
2019-01-25T19:14:49.498Z,83.91
2019-01-25T19:22:22.839Z,84.70
2019-01-25T19:29:16.604Z,84.93
2019-01-25T19:32:40.586Z,84.56
2019-01-25T19:43:24.431Z,85.21
2019-01-25T19:46:49.233Z,85.61
2019-01-25T19:50:35.096Z,85.65
2019-01-25T19:53:59.081Z,84.89
2019-01-25T19:57:23.289Z,84.14
2019-01-25T20:04:37.950Z,85.37
2019-01-25T20:08:02.706Z,85.08
2019-01-25T20:21:24.208Z,84.20
2019-01-25T20:24:48.263Z,84.15
2019-01-25T20:28:12.299Z,84.23
2019-01-25T20:31:36.440Z,83.82
2019-01-25T20:35:02.190Z,84.48
2019-01-25T20:38:26.293Z,84.85
2019-01-25T20:45:40.279Z,84.31
2019-01-25T20:48:56.925Z,84.29
2019-01-25T20:52:21.342Z,83.92
2019-01-25T20:59:54.606Z,82.85
2019-01-25T21:03:18.848Z,82.79
2019-01-25T21:06:43.430Z,82.95
2019-01-25T21:10:29.953Z,83.53
2019-01-25T21:13:54.055Z,83.65
2019-01-25T21:17:18.116Z,83.64
2019-01-25T21:21:01.683Z,83.56
2019-01-25T21:24:25.710Z,83.47
2019-01-25T21:27:50.058Z,83.42
2019-01-25T21:31:14.117Z,83.48
2019-01-25T21:34:38.583Z,83.42
2019-01-25T21:41:52.268Z,83.09
2019-01-25T21:49:00.087Z,83.14
2019-01-25T21:52:24.220Z,83.33
2019-01-25T21:55:48.297Z,83.14
2019-01-25T21:59:12.630Z,83.28
2019-01-25T22:02:36.759Z,83.19
2019-01-25T22:06:01.179Z,83.34
2019-01-25T22:09:25.534Z,82.96
2019-01-25T22:12:49.904Z,82.82
2019-01-25T22:19:43.193Z,82.33
2019-01-25T22:23:07.605Z,82.96
2019-01-25T22:26:31.671Z,82.98
2019-01-25T22:33:38.664Z,83.42
2019-01-25T22:37:02.653Z,83.65
2019-01-25T22:40:47.763Z,83.72
2019-01-25T22:44:30.992Z,83.44
2019-01-25T22:47:48.608Z,83.38
2019-01-25T22:51:12.674Z,84.28
2019-01-25T22:54:36.659Z,84.55
2019-01-25T22:58:00.952Z,84.44
2019-01-25T23:01:45.720Z,84.35
2019-01-25T23:05:48.504Z,84.06
2019-01-25T23:09:33.268Z,83.41
2019-01-25T23:12:57.243Z,82.80
2019-01-25T23:16:21.214Z,83.14
2019-01-25T23:19:45.424Z,83.06
2019-01-25T23:23:09.422Z,82.71
2019-01-25T23:26:33.386Z,83.25
2019-01-25T23:29:57.365Z,82.62
2019-01-25T23:33:21.345Z,82.10
2019-01-25T23:36:45.312Z,82.21
2019-01-25T23:43:59.985Z,82.56
2019-01-25T23:47:17.456Z,82.15
2019-01-25T23:50:41.428Z,82.24
2019-01-25T23:57:56.043Z,81.14
